<?xml version="1.0" encoding="UTF-8" standalone="no" ?>
<gpx xmlns="http://www.topografix.com/GPX/1/1" xmlns:xsi="http://www.w3.org/2001/XMLSchema-instance" xsi:schemaLocation="http://www.topografix.com/GPX/1/1 http://www.topografix.com/GPX/1/1/gpx.xsd" version="1.1" creator="VisuGPX - https://www.visugpx.com">
  <metadata>
    <name>Autour de Château Serein</name>
    <desc><![CDATA[Randonnée pédestre autour de Château Serein entre GR34 et chemins au départ de Port St Géran]]></desc>
  </metadata>
  <trk>
    <name><![CDATA[Autour_de_Château_Serein1]]></name>
    <desc><![CDATA[À partir de la Piste Active]]></desc>
    <trkseg>
      <trkpt lat="48.65053" lon="-2.30075">
        <ele>55.199219</ele>
        <time>2019-10-08T08:29:24Z</time>
      </trkpt>
      <trkpt lat="48.65043" lon="-2.30081">
        <ele>55.898438</ele>
        <time>2019-10-08T08:30:05Z</time>
      </trkpt>
      <trkpt lat="48.65035" lon="-2.30089">
        <ele>54</ele>
        <time>2019-10-08T08:30:17Z</time>
      </trkpt>
      <trkpt lat="48.65025" lon="-2.30092">
        <ele>56.597656</ele>
        <time>2019-10-08T08:30:28Z</time>
      </trkpt>
      <trkpt lat="48.65016" lon="-2.301">
        <ele>59.296875</ele>
        <time>2019-10-08T08:30:46Z</time>
      </trkpt>
      <trkpt lat="48.65008" lon="-2.30107">
        <ele>62.796875</ele>
        <time>2019-10-08T08:30:57Z</time>
      </trkpt>
      <trkpt lat="48.64999" lon="-2.30112">
        <ele>64.296875</ele>
        <time>2019-10-08T08:31:08Z</time>
      </trkpt>
      <trkpt lat="48.64992" lon="-2.30121">
        <ele>63.398438</ele>
        <time>2019-10-08T08:31:19Z</time>
      </trkpt>
      <trkpt lat="48.64988" lon="-2.30134">
        <ele>60.796875</ele>
        <time>2019-10-08T08:31:27Z</time>
      </trkpt>
      <trkpt lat="48.6492" lon="-2.30297">
        <ele>45.210938</ele>
        <time>2019-10-08T08:34:27Z</time>
      </trkpt>
      <trkpt lat="48.64913" lon="-2.30324">
        <ele>39.699219</ele>
        <time>2019-10-08T08:35:27Z</time>
      </trkpt>
      <trkpt lat="48.64901" lon="-2.30336">
        <ele>42</ele>
        <time>2019-10-08T08:35:32Z</time>
      </trkpt>
      <trkpt lat="48.64892" lon="-2.3034">
        <ele>44.199219</ele>
        <time>2019-10-08T08:35:43Z</time>
      </trkpt>
      <trkpt lat="48.64882" lon="-2.30341">
        <ele>49.898438</ele>
        <time>2019-10-08T08:35:53Z</time>
      </trkpt>
      <trkpt lat="48.64873" lon="-2.30343">
        <ele>55.597656</ele>
        <time>2019-10-08T08:36:10Z</time>
      </trkpt>
      <trkpt lat="48.64864" lon="-2.30342">
        <ele>56.199219</ele>
        <time>2019-10-08T08:36:19Z</time>
      </trkpt>
      <trkpt lat="48.64857" lon="-2.30351">
        <ele>59.699219</ele>
        <time>2019-10-08T08:36:30Z</time>
      </trkpt>
      <trkpt lat="48.64848" lon="-2.30353">
        <ele>65.398438</ele>
        <time>2019-10-08T08:36:40Z</time>
      </trkpt>
      <trkpt lat="48.64839" lon="-2.30348">
        <ele>67.414063</ele>
        <time>2019-10-08T08:36:48Z</time>
      </trkpt>
      <trkpt lat="48.64832" lon="-2.30356">
        <ele>68.5</ele>
        <time>2019-10-08T08:37:11Z</time>
      </trkpt>
      <trkpt lat="48.64817" lon="-2.30377">
        <ele>50.796875</ele>
        <time>2019-10-08T08:37:42Z</time>
      </trkpt>
      <trkpt lat="48.64817" lon="-2.30412">
        <ele>41.984375</ele>
        <time>2019-10-08T08:38:11Z</time>
      </trkpt>
      <trkpt lat="48.64816" lon="-2.30425">
        <ele>34.796875</ele>
        <time>2019-10-08T08:38:40Z</time>
      </trkpt>
      <trkpt lat="48.64815" lon="-2.30443">
        <ele>46.898438</ele>
        <time>2019-10-08T08:38:57Z</time>
      </trkpt>
      <trkpt lat="48.64806" lon="-2.30448">
        <ele>46.199219</ele>
        <time>2019-10-08T08:39:37Z</time>
      </trkpt>
      <trkpt lat="48.64802" lon="-2.3046">
        <ele>38.898438</ele>
        <time>2019-10-08T08:39:54Z</time>
      </trkpt>
      <trkpt lat="48.64801" lon="-2.30476">
        <ele>31.296875</ele>
        <time>2019-10-08T08:40:02Z</time>
      </trkpt>
      <trkpt lat="48.64798" lon="-2.30489">
        <ele>39.296875</ele>
        <time>2019-10-08T08:40:09Z</time>
      </trkpt>
      <trkpt lat="48.64788" lon="-2.30495">
        <ele>50.597656</ele>
        <time>2019-10-08T08:40:26Z</time>
      </trkpt>
      <trkpt lat="48.6478" lon="-2.305">
        <ele>56</ele>
        <time>2019-10-08T08:40:37Z</time>
      </trkpt>
      <trkpt lat="48.64771" lon="-2.30507">
        <ele>54</ele>
        <time>2019-10-08T08:40:48Z</time>
      </trkpt>
      <trkpt lat="48.64765" lon="-2.30517">
        <ele>50.796875</ele>
        <time>2019-10-08T08:40:57Z</time>
      </trkpt>
      <trkpt lat="48.6476" lon="-2.3053">
        <ele>49.597656</ele>
        <time>2019-10-08T08:41:04Z</time>
      </trkpt>
      <trkpt lat="48.64754" lon="-2.3054">
        <ele>49.398438</ele>
        <time>2019-10-08T08:41:13Z</time>
      </trkpt>
      <trkpt lat="48.64741" lon="-2.3056">
        <ele>54.199219</ele>
        <time>2019-10-08T08:41:32Z</time>
      </trkpt>
      <trkpt lat="48.64733" lon="-2.30568">
        <ele>63.296875</ele>
        <time>2019-10-08T08:41:42Z</time>
      </trkpt>
      <trkpt lat="48.64723" lon="-2.30574">
        <ele>67.796875</ele>
        <time>2019-10-08T08:41:57Z</time>
      </trkpt>
      <trkpt lat="48.64714" lon="-2.30578">
        <ele>67.5</ele>
        <time>2019-10-08T08:42:07Z</time>
      </trkpt>
      <trkpt lat="48.64708" lon="-2.3059">
        <ele>63.699219</ele>
        <time>2019-10-08T08:42:17Z</time>
      </trkpt>
      <trkpt lat="48.64704" lon="-2.30604">
        <ele>58.699219</ele>
        <time>2019-10-08T08:42:24Z</time>
      </trkpt>
      <trkpt lat="48.647" lon="-2.30619">
        <ele>51.398438</ele>
        <time>2019-10-08T08:42:31Z</time>
      </trkpt>
      <trkpt lat="48.64691" lon="-2.30644">
        <ele>42.125</ele>
        <time>2019-10-08T08:42:49Z</time>
      </trkpt>
      <trkpt lat="48.64685" lon="-2.30655">
        <ele>55.699219</ele>
        <time>2019-10-08T08:43:04Z</time>
      </trkpt>
      <trkpt lat="48.64676" lon="-2.30657">
        <ele>56.5</ele>
        <time>2019-10-08T08:43:20Z</time>
      </trkpt>
      <trkpt lat="48.6467" lon="-2.30667">
        <ele>64.796875</ele>
        <time>2019-10-08T08:43:32Z</time>
      </trkpt>
      <trkpt lat="48.64664" lon="-2.30681">
        <ele>72.296875</ele>
        <time>2019-10-08T08:43:48Z</time>
      </trkpt>
      <trkpt lat="48.64655" lon="-2.30688">
        <ele>69.796875</ele>
        <time>2019-10-08T08:44:01Z</time>
      </trkpt>
      <trkpt lat="48.6465" lon="-2.30701">
        <ele>68.5</ele>
        <time>2019-10-08T08:44:09Z</time>
      </trkpt>
      <trkpt lat="48.64641" lon="-2.30726">
        <ele>47.199219</ele>
        <time>2019-10-08T08:44:31Z</time>
      </trkpt>
      <trkpt lat="48.64632" lon="-2.30767">
        <ele>39.796875</ele>
        <time>2019-10-08T08:44:48Z</time>
      </trkpt>
      <trkpt lat="48.64626" lon="-2.30779">
        <ele>56.398438</ele>
        <time>2019-10-08T08:44:56Z</time>
      </trkpt>
      <trkpt lat="48.64612" lon="-2.30791">
        <ele>57.835938</ele>
        <time>2019-10-08T08:45:20Z</time>
      </trkpt>
      <trkpt lat="48.64605" lon="-2.308">
        <ele>55</ele>
        <time>2019-10-08T08:45:35Z</time>
      </trkpt>
      <trkpt lat="48.64591" lon="-2.30817">
        <ele>47.398438</ele>
        <time>2019-10-08T08:45:55Z</time>
      </trkpt>
      <trkpt lat="48.64584" lon="-2.30828">
        <ele>41.5</ele>
        <time>2019-10-08T08:46:05Z</time>
      </trkpt>
      <trkpt lat="48.64577" lon="-2.30836">
        <ele>37.796875</ele>
        <time>2019-10-08T08:46:15Z</time>
      </trkpt>
      <trkpt lat="48.64561" lon="-2.30851">
        <ele>43</ele>
        <time>2019-10-08T08:46:41Z</time>
      </trkpt>
      <trkpt lat="48.64552" lon="-2.30854">
        <ele>40.796875</ele>
        <time>2019-10-08T08:46:57Z</time>
      </trkpt>
      <trkpt lat="48.64542" lon="-2.30853">
        <ele>40.296875</ele>
        <time>2019-10-08T08:47:06Z</time>
      </trkpt>
      <trkpt lat="48.64533" lon="-2.3085">
        <ele>38.398438</ele>
        <time>2019-10-08T08:47:15Z</time>
      </trkpt>
      <trkpt lat="48.64524" lon="-2.30854">
        <ele>34.648438</ele>
        <time>2019-10-08T08:47:31Z</time>
      </trkpt>
      <trkpt lat="48.64516" lon="-2.30859">
        <ele>29</ele>
        <time>2019-10-08T08:47:43Z</time>
      </trkpt>
      <trkpt lat="48.64504" lon="-2.30863">
        <ele>29.699219</ele>
        <time>2019-10-08T08:48:02Z</time>
      </trkpt>
      <trkpt lat="48.64496" lon="-2.30871">
        <ele>31.097656</ele>
        <time>2019-10-08T08:48:14Z</time>
      </trkpt>
      <trkpt lat="48.64481" lon="-2.30886">
        <ele>36.847656</ele>
        <time>2019-10-08T08:48:39Z</time>
      </trkpt>
      <trkpt lat="48.64465" lon="-2.30899">
        <ele>36.5</ele>
        <time>2019-10-08T08:49:03Z</time>
      </trkpt>
      <trkpt lat="48.64452" lon="-2.30908">
        <ele>35.699219</ele>
        <time>2019-10-08T08:49:22Z</time>
      </trkpt>
      <trkpt lat="48.64444" lon="-2.30916">
        <ele>31.796875</ele>
        <time>2019-10-08T08:49:30Z</time>
      </trkpt>
      <trkpt lat="48.64436" lon="-2.30925">
        <ele>32.574219</ele>
        <time>2019-10-08T08:49:37Z</time>
      </trkpt>
      <trkpt lat="48.64428" lon="-2.30932">
        <ele>35.796875</ele>
        <time>2019-10-08T08:49:52Z</time>
      </trkpt>
      <trkpt lat="48.6442" lon="-2.3094">
        <ele>34.296875</ele>
        <time>2019-10-08T08:49:59Z</time>
      </trkpt>
      <trkpt lat="48.64413" lon="-2.3095">
        <ele>33.796875</ele>
        <time>2019-10-08T08:50:06Z</time>
      </trkpt>
      <trkpt lat="48.64406" lon="-2.30958">
        <ele>35.898438</ele>
        <time>2019-10-08T08:50:13Z</time>
      </trkpt>
      <trkpt lat="48.64382" lon="-2.3098">
        <ele>39</ele>
        <time>2019-10-08T08:50:44Z</time>
      </trkpt>
      <trkpt lat="48.64374" lon="-2.30986">
        <ele>47.097656</ele>
        <time>2019-10-08T08:50:58Z</time>
      </trkpt>
      <trkpt lat="48.64364" lon="-2.30987">
        <ele>46.6875</ele>
        <time>2019-10-08T08:51:10Z</time>
      </trkpt>
      <trkpt lat="48.64356" lon="-2.30991">
        <ele>45.5</ele>
        <time>2019-10-08T08:51:28Z</time>
      </trkpt>
      <trkpt lat="48.64347" lon="-2.30997">
        <ele>43.296875</ele>
        <time>2019-10-08T08:51:36Z</time>
      </trkpt>
      <trkpt lat="48.64339" lon="-2.31001">
        <ele>41</ele>
        <time>2019-10-08T08:51:48Z</time>
      </trkpt>
      <trkpt lat="48.64329" lon="-2.31001">
        <ele>37.984375</ele>
        <time>2019-10-08T08:52:00Z</time>
      </trkpt>
      <trkpt lat="48.6432" lon="-2.31005">
        <ele>41.050781</ele>
        <time>2019-10-08T08:52:18Z</time>
      </trkpt>
      <trkpt lat="48.64311" lon="-2.31007">
        <ele>44.089844</ele>
        <time>2019-10-08T08:52:51Z</time>
      </trkpt>
      <trkpt lat="48.64293" lon="-2.3101">
        <ele>40.199219</ele>
        <time>2019-10-08T08:56:05Z</time>
      </trkpt>
      <trkpt lat="48.64271" lon="-2.31025">
        <ele>40.796875</ele>
        <time>2019-10-08T08:57:01Z</time>
      </trkpt>
      <trkpt lat="48.64232" lon="-2.31052">
        <ele>51.296875</ele>
        <time>2019-10-08T08:57:56Z</time>
      </trkpt>
      <trkpt lat="48.64224" lon="-2.31059">
        <ele>54.765625</ele>
        <time>2019-10-08T08:58:06Z</time>
      </trkpt>
      <trkpt lat="48.64215" lon="-2.31059">
        <ele>42.597656</ele>
        <time>2019-10-08T08:58:25Z</time>
      </trkpt>
      <trkpt lat="48.64196" lon="-2.31066">
        <ele>43.296875</ele>
        <time>2019-10-08T08:59:00Z</time>
      </trkpt>
      <trkpt lat="48.64188" lon="-2.31061">
        <ele>42.699219</ele>
        <time>2019-10-08T08:59:11Z</time>
      </trkpt>
      <trkpt lat="48.64178" lon="-2.31058">
        <ele>41.199219</ele>
        <time>2019-10-08T08:59:20Z</time>
      </trkpt>
      <trkpt lat="48.6417" lon="-2.31051">
        <ele>38.296875</ele>
        <time>2019-10-08T08:59:28Z</time>
      </trkpt>
      <trkpt lat="48.64161" lon="-2.31046">
        <ele>40.699219</ele>
        <time>2019-10-08T08:59:39Z</time>
      </trkpt>
      <trkpt lat="48.64155" lon="-2.31035">
        <ele>39.199219</ele>
        <time>2019-10-08T08:59:52Z</time>
      </trkpt>
      <trkpt lat="48.64148" lon="-2.31027">
        <ele>34.699219</ele>
        <time>2019-10-08T09:00:00Z</time>
      </trkpt>
      <trkpt lat="48.64138" lon="-2.3102">
        <ele>30.898438</ele>
        <time>2019-10-08T09:00:13Z</time>
      </trkpt>
      <trkpt lat="48.6413" lon="-2.31012">
        <ele>26.296875</ele>
        <time>2019-10-08T09:00:22Z</time>
      </trkpt>
      <trkpt lat="48.64126" lon="-2.30997">
        <ele>19.664063</ele>
        <time>2019-10-08T09:00:39Z</time>
      </trkpt>
      <trkpt lat="48.64125" lon="-2.30983">
        <ele>25.796875</ele>
        <time>2019-10-08T09:00:56Z</time>
      </trkpt>
      <trkpt lat="48.64119" lon="-2.30967">
        <ele>30.3125</ele>
        <time>2019-10-08T09:01:23Z</time>
      </trkpt>
      <trkpt lat="48.64116" lon="-2.30954">
        <ele>39.796875</ele>
        <time>2019-10-08T09:01:44Z</time>
      </trkpt>
      <trkpt lat="48.64107" lon="-2.30948">
        <ele>43</ele>
        <time>2019-10-08T09:02:01Z</time>
      </trkpt>
      <trkpt lat="48.641" lon="-2.30957">
        <ele>34.898438</ele>
        <time>2019-10-08T09:02:20Z</time>
      </trkpt>
      <trkpt lat="48.64096" lon="-2.3097">
        <ele>27.699219</ele>
        <time>2019-10-08T09:02:28Z</time>
      </trkpt>
      <trkpt lat="48.64094" lon="-2.30983">
        <ele>22.296875</ele>
        <time>2019-10-08T09:02:36Z</time>
      </trkpt>
      <trkpt lat="48.64091" lon="-2.31012">
        <ele>22.582031</ele>
        <time>2019-10-08T09:02:57Z</time>
      </trkpt>
      <trkpt lat="48.64088" lon="-2.31025">
        <ele>24.398438</ele>
        <time>2019-10-08T09:03:19Z</time>
      </trkpt>
      <trkpt lat="48.64078" lon="-2.31041">
        <ele>28.796875</ele>
        <time>2019-10-08T09:03:36Z</time>
      </trkpt>
      <trkpt lat="48.64065" lon="-2.31058">
        <ele>26.796875</ele>
        <time>2019-10-08T09:03:58Z</time>
      </trkpt>
      <trkpt lat="48.64059" lon="-2.31068">
        <ele>31.898438</ele>
        <time>2019-10-08T09:04:08Z</time>
      </trkpt>
      <trkpt lat="48.6405" lon="-2.31073">
        <ele>32</ele>
        <time>2019-10-08T09:04:24Z</time>
      </trkpt>
      <trkpt lat="48.64044" lon="-2.31083">
        <ele>41.199219</ele>
        <time>2019-10-08T09:04:34Z</time>
      </trkpt>
      <trkpt lat="48.64037" lon="-2.31093">
        <ele>51.898438</ele>
        <time>2019-10-08T09:04:46Z</time>
      </trkpt>
      <trkpt lat="48.64029" lon="-2.31102">
        <ele>50.699219</ele>
        <time>2019-10-08T09:04:59Z</time>
      </trkpt>
      <trkpt lat="48.64027" lon="-2.31115">
        <ele>49.097656</ele>
        <time>2019-10-08T09:05:06Z</time>
      </trkpt>
      <trkpt lat="48.64023" lon="-2.31127">
        <ele>49.296875</ele>
        <time>2019-10-08T09:05:13Z</time>
      </trkpt>
      <trkpt lat="48.64018" lon="-2.31139">
        <ele>47.199219</ele>
        <time>2019-10-08T09:05:21Z</time>
      </trkpt>
      <trkpt lat="48.64013" lon="-2.31152">
        <ele>42.699219</ele>
        <time>2019-10-08T09:05:28Z</time>
      </trkpt>
      <trkpt lat="48.64002" lon="-2.31176">
        <ele>41.097656</ele>
        <time>2019-10-08T09:05:42Z</time>
      </trkpt>
      <trkpt lat="48.63997" lon="-2.31188">
        <ele>46.097656</ele>
        <time>2019-10-08T09:05:49Z</time>
      </trkpt>
      <trkpt lat="48.63986" lon="-2.312">
        <ele>47.796875</ele>
        <time>2019-10-08T09:06:07Z</time>
      </trkpt>
      <trkpt lat="48.63977" lon="-2.31201">
        <ele>50.796875</ele>
        <time>2019-10-08T09:06:15Z</time>
      </trkpt>
      <trkpt lat="48.63967" lon="-2.31198">
        <ele>50.398438</ele>
        <time>2019-10-08T09:06:25Z</time>
      </trkpt>
      <trkpt lat="48.63957" lon="-2.312">
        <ele>43.5</ele>
        <time>2019-10-08T09:06:33Z</time>
      </trkpt>
      <trkpt lat="48.63948" lon="-2.31202">
        <ele>48.398438</ele>
        <time>2019-10-08T09:06:45Z</time>
      </trkpt>
      <trkpt lat="48.63938" lon="-2.31198">
        <ele>46.296875</ele>
        <time>2019-10-08T09:06:57Z</time>
      </trkpt>
      <trkpt lat="48.63929" lon="-2.31203">
        <ele>37.898438</ele>
        <time>2019-10-08T09:07:18Z</time>
      </trkpt>
      <trkpt lat="48.63921" lon="-2.31212">
        <ele>36</ele>
        <time>2019-10-08T09:07:28Z</time>
      </trkpt>
      <trkpt lat="48.63913" lon="-2.3122">
        <ele>34.199219</ele>
        <time>2019-10-08T09:07:37Z</time>
      </trkpt>
      <trkpt lat="48.63896" lon="-2.3124">
        <ele>46.148438</ele>
        <time>2019-10-08T09:08:01Z</time>
      </trkpt>
      <trkpt lat="48.6389" lon="-2.31249">
        <ele>47.898438</ele>
        <time>2019-10-08T09:08:11Z</time>
      </trkpt>
      <trkpt lat="48.63882" lon="-2.31256">
        <ele>39.199219</ele>
        <time>2019-10-08T09:08:21Z</time>
      </trkpt>
      <trkpt lat="48.63875" lon="-2.31267">
        <ele>34.597656</ele>
        <time>2019-10-08T09:08:29Z</time>
      </trkpt>
      <trkpt lat="48.63861" lon="-2.31286">
        <ele>34.296875</ele>
        <time>2019-10-08T09:08:49Z</time>
      </trkpt>
      <trkpt lat="48.63852" lon="-2.31293">
        <ele>33.398438</ele>
        <time>2019-10-08T09:08:55Z</time>
      </trkpt>
      <trkpt lat="48.63843" lon="-2.313">
        <ele>36.398438</ele>
        <time>2019-10-08T09:09:02Z</time>
      </trkpt>
      <trkpt lat="48.63833" lon="-2.31306">
        <ele>40.398438</ele>
        <time>2019-10-08T09:09:09Z</time>
      </trkpt>
      <trkpt lat="48.63824" lon="-2.31308">
        <ele>42.097656</ele>
        <time>2019-10-08T09:09:17Z</time>
      </trkpt>
      <trkpt lat="48.63816" lon="-2.31314">
        <ele>36.597656</ele>
        <time>2019-10-08T09:09:28Z</time>
      </trkpt>
      <trkpt lat="48.63806" lon="-2.31316">
        <ele>49.296875</ele>
        <time>2019-10-08T09:09:40Z</time>
      </trkpt>
      <trkpt lat="48.63801" lon="-2.31303">
        <ele>55.199219</ele>
        <time>2019-10-08T09:09:56Z</time>
      </trkpt>
      <trkpt lat="48.63806" lon="-2.31293">
        <ele>55.699219</ele>
        <time>2019-10-08T09:10:06Z</time>
      </trkpt>
      <trkpt lat="48.63811" lon="-2.31281">
        <ele>57.699219</ele>
        <time>2019-10-08T09:10:16Z</time>
      </trkpt>
      <trkpt lat="48.63814" lon="-2.31268">
        <ele>59.597656</ele>
        <time>2019-10-08T09:10:28Z</time>
      </trkpt>
      <trkpt lat="48.63816" lon="-2.31254">
        <ele>63.796875</ele>
        <time>2019-10-08T09:10:40Z</time>
      </trkpt>
      <trkpt lat="48.63821" lon="-2.31241">
        <ele>65</ele>
        <time>2019-10-08T09:10:50Z</time>
      </trkpt>
      <trkpt lat="48.63827" lon="-2.3123">
        <ele>72.699219</ele>
        <time>2019-10-08T09:11:02Z</time>
      </trkpt>
      <trkpt lat="48.63832" lon="-2.31218">
        <ele>72.199219</ele>
        <time>2019-10-08T09:11:24Z</time>
      </trkpt>
      <trkpt lat="48.63854" lon="-2.31169">
        <ele>66.5</ele>
        <time>2019-10-08T09:12:06Z</time>
      </trkpt>
      <trkpt lat="48.63856" lon="-2.31155">
        <ele>68</ele>
        <time>2019-10-08T09:12:17Z</time>
      </trkpt>
      <trkpt lat="48.63862" lon="-2.31144">
        <ele>69.898438</ele>
        <time>2019-10-08T09:12:27Z</time>
      </trkpt>
      <trkpt lat="48.63866" lon="-2.31126">
        <ele>72.898438</ele>
        <time>2019-10-08T09:12:44Z</time>
      </trkpt>
      <trkpt lat="48.63861" lon="-2.31114">
        <ele>79.398438</ele>
        <time>2019-10-08T09:12:55Z</time>
      </trkpt>
      <trkpt lat="48.63853" lon="-2.31106">
        <ele>78.597656</ele>
        <time>2019-10-08T09:13:08Z</time>
      </trkpt>
      <trkpt lat="48.63848" lon="-2.31095">
        <ele>79.097656</ele>
        <time>2019-10-08T09:13:16Z</time>
      </trkpt>
      <trkpt lat="48.63845" lon="-2.31081">
        <ele>82.5</ele>
        <time>2019-10-08T09:13:23Z</time>
      </trkpt>
      <trkpt lat="48.63836" lon="-2.31039">
        <ele>81</ele>
        <time>2019-10-08T09:13:45Z</time>
      </trkpt>
      <trkpt lat="48.63832" lon="-2.31025">
        <ele>78.5</ele>
        <time>2019-10-08T09:13:53Z</time>
      </trkpt>
      <trkpt lat="48.63831" lon="-2.31011">
        <ele>72.722656</ele>
        <time>2019-10-08T09:14:02Z</time>
      </trkpt>
      <trkpt lat="48.6383" lon="-2.30997">
        <ele>65.726563</ele>
        <time>2019-10-08T09:14:14Z</time>
      </trkpt>
      <trkpt lat="48.63836" lon="-2.30986">
        <ele>64.699219</ele>
        <time>2019-10-08T09:15:39Z</time>
      </trkpt>
      <trkpt lat="48.63829" lon="-2.30997">
        <ele>63.796875</ele>
        <time>2019-10-08T09:15:58Z</time>
      </trkpt>
      <trkpt lat="48.63821" lon="-2.31004">
        <ele>64.898438</ele>
        <time>2019-10-08T09:16:08Z</time>
      </trkpt>
      <trkpt lat="48.63812" lon="-2.3101">
        <ele>62.699219</ele>
        <time>2019-10-08T09:16:18Z</time>
      </trkpt>
      <trkpt lat="48.63804" lon="-2.31018">
        <ele>62.898438</ele>
        <time>2019-10-08T09:16:26Z</time>
      </trkpt>
      <trkpt lat="48.63795" lon="-2.31023">
        <ele>61.398438</ele>
        <time>2019-10-08T09:16:38Z</time>
      </trkpt>
      <trkpt lat="48.63787" lon="-2.3103">
        <ele>62.398438</ele>
        <time>2019-10-08T09:16:46Z</time>
      </trkpt>
      <trkpt lat="48.6378" lon="-2.3104">
        <ele>62.898438</ele>
        <time>2019-10-08T09:16:55Z</time>
      </trkpt>
      <trkpt lat="48.63773" lon="-2.31049">
        <ele>59.097656</ele>
        <time>2019-10-08T09:17:07Z</time>
      </trkpt>
      <trkpt lat="48.63765" lon="-2.31059">
        <ele>55.5</ele>
        <time>2019-10-08T09:17:16Z</time>
      </trkpt>
      <trkpt lat="48.63753" lon="-2.31079">
        <ele>55.296875</ele>
        <time>2019-10-08T09:17:38Z</time>
      </trkpt>
      <trkpt lat="48.63746" lon="-2.31088">
        <ele>55.699219</ele>
        <time>2019-10-08T09:17:47Z</time>
      </trkpt>
      <trkpt lat="48.63739" lon="-2.31098">
        <ele>55.398438</ele>
        <time>2019-10-08T09:17:57Z</time>
      </trkpt>
      <trkpt lat="48.63734" lon="-2.31111">
        <ele>58.597656</ele>
        <time>2019-10-08T09:18:07Z</time>
      </trkpt>
      <trkpt lat="48.63728" lon="-2.31122">
        <ele>61.398438</ele>
        <time>2019-10-08T09:18:16Z</time>
      </trkpt>
      <trkpt lat="48.63723" lon="-2.31135">
        <ele>64.597656</ele>
        <time>2019-10-08T09:18:27Z</time>
      </trkpt>
      <trkpt lat="48.6372" lon="-2.31148">
        <ele>68.398438</ele>
        <time>2019-10-08T09:18:36Z</time>
      </trkpt>
      <trkpt lat="48.63715" lon="-2.3116">
        <ele>66.199219</ele>
        <time>2019-10-08T09:18:46Z</time>
      </trkpt>
      <trkpt lat="48.63709" lon="-2.31175">
        <ele>63.199219</ele>
        <time>2019-10-08T09:19:34Z</time>
      </trkpt>
      <trkpt lat="48.63702" lon="-2.31186">
        <ele>61</ele>
        <time>2019-10-08T09:19:44Z</time>
      </trkpt>
      <trkpt lat="48.63697" lon="-2.31198">
        <ele>61.296875</ele>
        <time>2019-10-08T09:19:55Z</time>
      </trkpt>
      <trkpt lat="48.63692" lon="-2.31211">
        <ele>62.597656</ele>
        <time>2019-10-08T09:20:07Z</time>
      </trkpt>
      <trkpt lat="48.63685" lon="-2.3122">
        <ele>65.796875</ele>
        <time>2019-10-08T09:20:18Z</time>
      </trkpt>
      <trkpt lat="48.63676" lon="-2.31225">
        <ele>65</ele>
        <time>2019-10-08T09:20:28Z</time>
      </trkpt>
      <trkpt lat="48.63668" lon="-2.31232">
        <ele>66</ele>
        <time>2019-10-08T09:20:36Z</time>
      </trkpt>
      <trkpt lat="48.63636" lon="-2.31263">
        <ele>68.398438</ele>
        <time>2019-10-08T09:21:07Z</time>
      </trkpt>
      <trkpt lat="48.63626" lon="-2.31267">
        <ele>72.5</ele>
        <time>2019-10-08T09:21:17Z</time>
      </trkpt>
      <trkpt lat="48.63619" lon="-2.31275">
        <ele>69.898438</ele>
        <time>2019-10-08T09:21:27Z</time>
      </trkpt>
      <trkpt lat="48.63611" lon="-2.31284">
        <ele>68.097656</ele>
        <time>2019-10-08T09:21:36Z</time>
      </trkpt>
      <trkpt lat="48.63601" lon="-2.31289">
        <ele>67.699219</ele>
        <time>2019-10-08T09:21:43Z</time>
      </trkpt>
      <trkpt lat="48.63592" lon="-2.31293">
        <ele>67.597656</ele>
        <time>2019-10-08T09:21:50Z</time>
      </trkpt>
      <trkpt lat="48.63583" lon="-2.31295">
        <ele>67.699219</ele>
        <time>2019-10-08T09:21:57Z</time>
      </trkpt>
      <trkpt lat="48.63573" lon="-2.31297">
        <ele>66.796875</ele>
        <time>2019-10-08T09:22:04Z</time>
      </trkpt>
      <trkpt lat="48.63565" lon="-2.31302">
        <ele>66</ele>
        <time>2019-10-08T09:22:12Z</time>
      </trkpt>
      <trkpt lat="48.63558" lon="-2.31312">
        <ele>68.199219</ele>
        <time>2019-10-08T09:22:21Z</time>
      </trkpt>
      <trkpt lat="48.63551" lon="-2.31322">
        <ele>79.199219</ele>
        <time>2019-10-08T09:22:33Z</time>
      </trkpt>
      <trkpt lat="48.6354" lon="-2.31326">
        <ele>79.597656</ele>
        <time>2019-10-08T09:22:50Z</time>
      </trkpt>
      <trkpt lat="48.63531" lon="-2.31329">
        <ele>81</ele>
        <time>2019-10-08T09:23:02Z</time>
      </trkpt>
      <trkpt lat="48.63522" lon="-2.31334">
        <ele>79.597656</ele>
        <time>2019-10-08T09:23:10Z</time>
      </trkpt>
      <trkpt lat="48.63511" lon="-2.31336">
        <ele>74.398438</ele>
        <time>2019-10-08T09:23:18Z</time>
      </trkpt>
      <trkpt lat="48.63502" lon="-2.31337">
        <ele>70.296875</ele>
        <time>2019-10-08T09:23:25Z</time>
      </trkpt>
      <trkpt lat="48.63492" lon="-2.31336">
        <ele>68.699219</ele>
        <time>2019-10-08T09:23:32Z</time>
      </trkpt>
      <trkpt lat="48.63482" lon="-2.31334">
        <ele>67.199219</ele>
        <time>2019-10-08T09:23:39Z</time>
      </trkpt>
      <trkpt lat="48.63472" lon="-2.31334">
        <ele>68</ele>
        <time>2019-10-08T09:23:46Z</time>
      </trkpt>
      <trkpt lat="48.63464" lon="-2.31341">
        <ele>67.398438</ele>
        <time>2019-10-08T09:23:54Z</time>
      </trkpt>
      <trkpt lat="48.63459" lon="-2.31354">
        <ele>67.699219</ele>
        <time>2019-10-08T09:24:08Z</time>
      </trkpt>
      <trkpt lat="48.63459" lon="-2.31367">
        <ele>67</ele>
        <time>2019-10-08T09:24:18Z</time>
      </trkpt>
      <trkpt lat="48.63455" lon="-2.3138">
        <ele>68.597656</ele>
        <time>2019-10-08T09:24:27Z</time>
      </trkpt>
      <trkpt lat="48.6345" lon="-2.31392">
        <ele>71.097656</ele>
        <time>2019-10-08T09:24:36Z</time>
      </trkpt>
      <trkpt lat="48.63439" lon="-2.31415">
        <ele>78.796875</ele>
        <time>2019-10-08T09:24:54Z</time>
      </trkpt>
      <trkpt lat="48.63436" lon="-2.31428">
        <ele>79.199219</ele>
        <time>2019-10-08T09:25:05Z</time>
      </trkpt>
      <trkpt lat="48.6343" lon="-2.3144">
        <ele>79.898438</ele>
        <time>2019-10-08T09:25:14Z</time>
      </trkpt>
      <trkpt lat="48.63422" lon="-2.31447">
        <ele>77.597656</ele>
        <time>2019-10-08T09:25:24Z</time>
      </trkpt>
      <trkpt lat="48.63414" lon="-2.31453">
        <ele>76.296875</ele>
        <time>2019-10-08T09:25:33Z</time>
      </trkpt>
      <trkpt lat="48.63406" lon="-2.31463">
        <ele>72.199219</ele>
        <time>2019-10-08T09:25:44Z</time>
      </trkpt>
      <trkpt lat="48.63398" lon="-2.3147">
        <ele>68.5</ele>
        <time>2019-10-08T09:25:52Z</time>
      </trkpt>
      <trkpt lat="48.63372" lon="-2.31492">
        <ele>63.796875</ele>
        <time>2019-10-08T09:26:16Z</time>
      </trkpt>
      <trkpt lat="48.63368" lon="-2.31504">
        <ele>63.5</ele>
        <time>2019-10-08T09:26:25Z</time>
      </trkpt>
      <trkpt lat="48.63368" lon="-2.31518">
        <ele>70.5</ele>
        <time>2019-10-08T09:26:35Z</time>
      </trkpt>
      <trkpt lat="48.63358" lon="-2.31529">
        <ele>68.699219</ele>
        <time>2019-10-08T09:28:07Z</time>
      </trkpt>
      <trkpt lat="48.6335" lon="-2.31536">
        <ele>66.097656</ele>
        <time>2019-10-08T09:28:41Z</time>
      </trkpt>
      <trkpt lat="48.63341" lon="-2.31544">
        <ele>61.796875</ele>
        <time>2019-10-08T09:28:53Z</time>
      </trkpt>
      <trkpt lat="48.63333" lon="-2.31553">
        <ele>61.097656</ele>
        <time>2019-10-08T09:29:01Z</time>
      </trkpt>
      <trkpt lat="48.63325" lon="-2.3156">
        <ele>62.199219</ele>
        <time>2019-10-08T09:29:09Z</time>
      </trkpt>
      <trkpt lat="48.63316" lon="-2.31564">
        <ele>62.5</ele>
        <time>2019-10-08T09:29:18Z</time>
      </trkpt>
      <trkpt lat="48.63309" lon="-2.31573">
        <ele>64.699219</ele>
        <time>2019-10-08T09:29:26Z</time>
      </trkpt>
      <trkpt lat="48.633" lon="-2.3158">
        <ele>62.414063</ele>
        <time>2019-10-08T09:29:53Z</time>
      </trkpt>
      <trkpt lat="48.63296" lon="-2.31592">
        <ele>61.199219</ele>
        <time>2019-10-08T09:31:32Z</time>
      </trkpt>
      <trkpt lat="48.63296" lon="-2.31606">
        <ele>59.796875</ele>
        <time>2019-10-08T09:31:47Z</time>
      </trkpt>
      <trkpt lat="48.63292" lon="-2.31619">
        <ele>59.796875</ele>
        <time>2019-10-08T09:31:56Z</time>
      </trkpt>
      <trkpt lat="48.63291" lon="-2.31632">
        <ele>59.097656</ele>
        <time>2019-10-08T09:32:07Z</time>
      </trkpt>
      <trkpt lat="48.63288" lon="-2.31646">
        <ele>58.398438</ele>
        <time>2019-10-08T09:32:15Z</time>
      </trkpt>
      <trkpt lat="48.63284" lon="-2.31659">
        <ele>56.5</ele>
        <time>2019-10-08T09:32:24Z</time>
      </trkpt>
      <trkpt lat="48.6328" lon="-2.31672">
        <ele>56.898438</ele>
        <time>2019-10-08T09:32:32Z</time>
      </trkpt>
      <trkpt lat="48.63281" lon="-2.31686">
        <ele>57.597656</ele>
        <time>2019-10-08T09:32:41Z</time>
      </trkpt>
      <trkpt lat="48.63276" lon="-2.31698">
        <ele>57.5</ele>
        <time>2019-10-08T09:32:51Z</time>
      </trkpt>
      <trkpt lat="48.63271" lon="-2.3171">
        <ele>57.597656</ele>
        <time>2019-10-08T09:33:00Z</time>
      </trkpt>
      <trkpt lat="48.63262" lon="-2.31715">
        <ele>57.597656</ele>
        <time>2019-10-08T09:33:09Z</time>
      </trkpt>
      <trkpt lat="48.63255" lon="-2.31724">
        <ele>57.398438</ele>
        <time>2019-10-08T09:33:17Z</time>
      </trkpt>
      <trkpt lat="48.63248" lon="-2.31736">
        <ele>57.097656</ele>
        <time>2019-10-08T09:33:25Z</time>
      </trkpt>
      <trkpt lat="48.63243" lon="-2.31748">
        <ele>58.597656</ele>
        <time>2019-10-08T09:33:33Z</time>
      </trkpt>
      <trkpt lat="48.63238" lon="-2.31759">
        <ele>55.296875</ele>
        <time>2019-10-08T09:34:03Z</time>
      </trkpt>
      <trkpt lat="48.63232" lon="-2.3177">
        <ele>53.199219</ele>
        <time>2019-10-08T09:34:12Z</time>
      </trkpt>
      <trkpt lat="48.63224" lon="-2.31778">
        <ele>51.699219</ele>
        <time>2019-10-08T09:34:21Z</time>
      </trkpt>
      <trkpt lat="48.63215" lon="-2.31786">
        <ele>51.898438</ele>
        <time>2019-10-08T09:34:29Z</time>
      </trkpt>
      <trkpt lat="48.63208" lon="-2.31795">
        <ele>51.898438</ele>
        <time>2019-10-08T09:34:37Z</time>
      </trkpt>
      <trkpt lat="48.632" lon="-2.31802">
        <ele>53</ele>
        <time>2019-10-08T09:34:45Z</time>
      </trkpt>
      <trkpt lat="48.63194" lon="-2.31814">
        <ele>52.097656</ele>
        <time>2019-10-08T09:34:54Z</time>
      </trkpt>
      <trkpt lat="48.63187" lon="-2.31825">
        <ele>52.199219</ele>
        <time>2019-10-08T09:35:02Z</time>
      </trkpt>
      <trkpt lat="48.63183" lon="-2.31837">
        <ele>53.097656</ele>
        <time>2019-10-08T09:35:09Z</time>
      </trkpt>
      <trkpt lat="48.63172" lon="-2.31878">
        <ele>52.699219</ele>
        <time>2019-10-08T09:35:35Z</time>
      </trkpt>
      <trkpt lat="48.63167" lon="-2.31891">
        <ele>51.898438</ele>
        <time>2019-10-08T09:35:43Z</time>
      </trkpt>
      <trkpt lat="48.63161" lon="-2.31902">
        <ele>52</ele>
        <time>2019-10-08T09:35:50Z</time>
      </trkpt>
      <trkpt lat="48.63156" lon="-2.31914">
        <ele>51.796875</ele>
        <time>2019-10-08T09:35:58Z</time>
      </trkpt>
      <trkpt lat="48.6315" lon="-2.31925">
        <ele>50.199219</ele>
        <time>2019-10-08T09:36:05Z</time>
      </trkpt>
      <trkpt lat="48.63144" lon="-2.31935">
        <ele>50.597656</ele>
        <time>2019-10-08T09:36:12Z</time>
      </trkpt>
      <trkpt lat="48.63139" lon="-2.31948">
        <ele>50.199219</ele>
        <time>2019-10-08T09:36:21Z</time>
      </trkpt>
      <trkpt lat="48.63135" lon="-2.31961">
        <ele>49.398438</ele>
        <time>2019-10-08T09:36:30Z</time>
      </trkpt>
      <trkpt lat="48.63127" lon="-2.31989">
        <ele>48.796875</ele>
        <time>2019-10-08T09:36:51Z</time>
      </trkpt>
      <trkpt lat="48.63124" lon="-2.32003">
        <ele>48.597656</ele>
        <time>2019-10-08T09:37:02Z</time>
      </trkpt>
      <trkpt lat="48.63119" lon="-2.32016">
        <ele>47.796875</ele>
        <time>2019-10-08T09:37:10Z</time>
      </trkpt>
      <trkpt lat="48.63117" lon="-2.32031">
        <ele>48.398438</ele>
        <time>2019-10-08T09:37:18Z</time>
      </trkpt>
      <trkpt lat="48.63113" lon="-2.32044">
        <ele>49.5</ele>
        <time>2019-10-08T09:37:26Z</time>
      </trkpt>
      <trkpt lat="48.63112" lon="-2.32059">
        <ele>45.5</ele>
        <time>2019-10-08T09:37:35Z</time>
      </trkpt>
      <trkpt lat="48.63113" lon="-2.32073">
        <ele>41.699219</ele>
        <time>2019-10-08T09:37:45Z</time>
      </trkpt>
      <trkpt lat="48.63116" lon="-2.32087">
        <ele>39.097656</ele>
        <time>2019-10-08T09:37:55Z</time>
      </trkpt>
      <trkpt lat="48.6312" lon="-2.321">
        <ele>37.5</ele>
        <time>2019-10-08T09:38:05Z</time>
      </trkpt>
      <trkpt lat="48.63127" lon="-2.32109">
        <ele>39.699219</ele>
        <time>2019-10-08T09:38:14Z</time>
      </trkpt>
      <trkpt lat="48.63135" lon="-2.32117">
        <ele>39.898438</ele>
        <time>2019-10-08T09:38:26Z</time>
      </trkpt>
      <trkpt lat="48.63144" lon="-2.32121">
        <ele>36.699219</ele>
        <time>2019-10-08T09:38:38Z</time>
      </trkpt>
      <trkpt lat="48.63171" lon="-2.32132">
        <ele>33.785156</ele>
        <time>2019-10-08T09:39:12Z</time>
      </trkpt>
      <trkpt lat="48.63181" lon="-2.32134">
        <ele>34.296875</ele>
        <time>2019-10-08T09:39:36Z</time>
      </trkpt>
      <trkpt lat="48.63202" lon="-2.32138">
        <ele>38.097656</ele>
        <time>2019-10-08T09:40:13Z</time>
      </trkpt>
      <trkpt lat="48.6321" lon="-2.3213">
        <ele>40.398438</ele>
        <time>2019-10-08T09:40:22Z</time>
      </trkpt>
      <trkpt lat="48.63216" lon="-2.3212">
        <ele>46.597656</ele>
        <time>2019-10-08T09:40:31Z</time>
      </trkpt>
      <trkpt lat="48.63222" lon="-2.32108">
        <ele>48.597656</ele>
        <time>2019-10-08T09:40:42Z</time>
      </trkpt>
      <trkpt lat="48.63227" lon="-2.32095">
        <ele>50.699219</ele>
        <time>2019-10-08T09:40:51Z</time>
      </trkpt>
      <trkpt lat="48.63231" lon="-2.32082">
        <ele>53.699219</ele>
        <time>2019-10-08T09:41:03Z</time>
      </trkpt>
      <trkpt lat="48.6324" lon="-2.32077">
        <ele>48.699219</ele>
        <time>2019-10-08T09:41:14Z</time>
      </trkpt>
      <trkpt lat="48.6325" lon="-2.32079">
        <ele>46</ele>
        <time>2019-10-08T09:41:24Z</time>
      </trkpt>
      <trkpt lat="48.6326" lon="-2.32078">
        <ele>47.398438</ele>
        <time>2019-10-08T09:41:32Z</time>
      </trkpt>
      <trkpt lat="48.63271" lon="-2.32076">
        <ele>47.699219</ele>
        <time>2019-10-08T09:41:43Z</time>
      </trkpt>
      <trkpt lat="48.63281" lon="-2.32074">
        <ele>53.097656</ele>
        <time>2019-10-08T09:41:52Z</time>
      </trkpt>
      <trkpt lat="48.63299" lon="-2.32067">
        <ele>56.597656</ele>
        <time>2019-10-08T09:42:09Z</time>
      </trkpt>
      <trkpt lat="48.63308" lon="-2.3207">
        <ele>55.5</ele>
        <time>2019-10-08T09:42:18Z</time>
      </trkpt>
      <trkpt lat="48.63337" lon="-2.32075">
        <ele>57.5</ele>
        <time>2019-10-08T09:42:44Z</time>
      </trkpt>
      <trkpt lat="48.63347" lon="-2.32078">
        <ele>58.898438</ele>
        <time>2019-10-08T09:42:52Z</time>
      </trkpt>
      <trkpt lat="48.63365" lon="-2.32087">
        <ele>61.796875</ele>
        <time>2019-10-08T09:43:08Z</time>
      </trkpt>
      <trkpt lat="48.63374" lon="-2.32092">
        <ele>61.167969</ele>
        <time>2019-10-08T09:43:16Z</time>
      </trkpt>
      <trkpt lat="48.63382" lon="-2.321">
        <ele>57.699219</ele>
        <time>2019-10-08T09:43:36Z</time>
      </trkpt>
      <trkpt lat="48.63391" lon="-2.32104">
        <ele>54.796875</ele>
        <time>2019-10-08T09:43:45Z</time>
      </trkpt>
      <trkpt lat="48.63401" lon="-2.32106">
        <ele>52.597656</ele>
        <time>2019-10-08T09:43:55Z</time>
      </trkpt>
      <trkpt lat="48.63411" lon="-2.32106">
        <ele>51.597656</ele>
        <time>2019-10-08T09:44:03Z</time>
      </trkpt>
      <trkpt lat="48.63421" lon="-2.32102">
        <ele>50.796875</ele>
        <time>2019-10-08T09:44:11Z</time>
      </trkpt>
      <trkpt lat="48.6343" lon="-2.32097">
        <ele>51.097656</ele>
        <time>2019-10-08T09:44:20Z</time>
      </trkpt>
      <trkpt lat="48.63438" lon="-2.32092">
        <ele>60.699219</ele>
        <time>2019-10-08T09:44:28Z</time>
      </trkpt>
      <trkpt lat="48.63446" lon="-2.32085">
        <ele>70</ele>
        <time>2019-10-08T09:44:41Z</time>
      </trkpt>
      <trkpt lat="48.63454" lon="-2.32076">
        <ele>69.597656</ele>
        <time>2019-10-08T09:44:56Z</time>
      </trkpt>
      <trkpt lat="48.63462" lon="-2.3207">
        <ele>66.898438</ele>
        <time>2019-10-08T09:45:06Z</time>
      </trkpt>
      <trkpt lat="48.6347" lon="-2.32061">
        <ele>64.296875</ele>
        <time>2019-10-08T09:45:14Z</time>
      </trkpt>
      <trkpt lat="48.63479" lon="-2.32054">
        <ele>64.699219</ele>
        <time>2019-10-08T09:45:23Z</time>
      </trkpt>
      <trkpt lat="48.63496" lon="-2.3204">
        <ele>68</ele>
        <time>2019-10-08T09:45:39Z</time>
      </trkpt>
      <trkpt lat="48.63512" lon="-2.32024">
        <ele>66.796875</ele>
        <time>2019-10-08T09:45:56Z</time>
      </trkpt>
      <trkpt lat="48.63522" lon="-2.32021">
        <ele>65.398438</ele>
        <time>2019-10-08T09:46:03Z</time>
      </trkpt>
      <trkpt lat="48.63531" lon="-2.32021">
        <ele>64</ele>
        <time>2019-10-08T09:46:10Z</time>
      </trkpt>
      <trkpt lat="48.6354" lon="-2.32028">
        <ele>63.097656</ele>
        <time>2019-10-08T09:46:18Z</time>
      </trkpt>
      <trkpt lat="48.63548" lon="-2.32037">
        <ele>64</ele>
        <time>2019-10-08T09:46:26Z</time>
      </trkpt>
      <trkpt lat="48.63587" lon="-2.32082">
        <ele>64.097656</ele>
        <time>2019-10-08T09:47:12Z</time>
      </trkpt>
      <trkpt lat="48.63595" lon="-2.32091">
        <ele>64.5</ele>
        <time>2019-10-08T09:47:21Z</time>
      </trkpt>
      <trkpt lat="48.63602" lon="-2.32102">
        <ele>66.296875</ele>
        <time>2019-10-08T09:47:30Z</time>
      </trkpt>
      <trkpt lat="48.63609" lon="-2.32112">
        <ele>68.699219</ele>
        <time>2019-10-08T09:47:39Z</time>
      </trkpt>
      <trkpt lat="48.63614" lon="-2.32123">
        <ele>69.597656</ele>
        <time>2019-10-08T09:47:47Z</time>
      </trkpt>
      <trkpt lat="48.63622" lon="-2.32134">
        <ele>70.097656</ele>
        <time>2019-10-08T09:47:56Z</time>
      </trkpt>
      <trkpt lat="48.6363" lon="-2.32143">
        <ele>70.398438</ele>
        <time>2019-10-08T09:48:05Z</time>
      </trkpt>
      <trkpt lat="48.63638" lon="-2.3215">
        <ele>71.699219</ele>
        <time>2019-10-08T09:48:13Z</time>
      </trkpt>
      <trkpt lat="48.63645" lon="-2.3216">
        <ele>72.597656</ele>
        <time>2019-10-08T09:48:22Z</time>
      </trkpt>
      <trkpt lat="48.63654" lon="-2.32168">
        <ele>73.898438</ele>
        <time>2019-10-08T09:48:31Z</time>
      </trkpt>
      <trkpt lat="48.63661" lon="-2.32178">
        <ele>73</ele>
        <time>2019-10-08T09:48:39Z</time>
      </trkpt>
      <trkpt lat="48.63675" lon="-2.32199">
        <ele>72.199219</ele>
        <time>2019-10-08T09:49:03Z</time>
      </trkpt>
      <trkpt lat="48.63681" lon="-2.3221">
        <ele>72</ele>
        <time>2019-10-08T09:49:12Z</time>
      </trkpt>
      <trkpt lat="48.63689" lon="-2.32218">
        <ele>72.796875</ele>
        <time>2019-10-08T09:49:22Z</time>
      </trkpt>
      <trkpt lat="48.63698" lon="-2.3222">
        <ele>73.296875</ele>
        <time>2019-10-08T09:49:31Z</time>
      </trkpt>
      <trkpt lat="48.63707" lon="-2.32221">
        <ele>71.796875</ele>
        <time>2019-10-08T09:49:39Z</time>
      </trkpt>
      <trkpt lat="48.63717" lon="-2.32223">
        <ele>72</ele>
        <time>2019-10-08T09:49:47Z</time>
      </trkpt>
      <trkpt lat="48.63726" lon="-2.32226">
        <ele>70.199219</ele>
        <time>2019-10-08T09:49:56Z</time>
      </trkpt>
      <trkpt lat="48.63735" lon="-2.32226">
        <ele>69.097656</ele>
        <time>2019-10-08T09:50:05Z</time>
      </trkpt>
      <trkpt lat="48.63744" lon="-2.32226">
        <ele>69.097656</ele>
        <time>2019-10-08T09:50:13Z</time>
      </trkpt>
      <trkpt lat="48.63753" lon="-2.32224">
        <ele>71</ele>
        <time>2019-10-08T09:50:22Z</time>
      </trkpt>
      <trkpt lat="48.63762" lon="-2.3222">
        <ele>72.699219</ele>
        <time>2019-10-08T09:50:34Z</time>
      </trkpt>
      <trkpt lat="48.63799" lon="-2.32201">
        <ele>75.199219</ele>
        <time>2019-10-08T09:51:08Z</time>
      </trkpt>
      <trkpt lat="48.63818" lon="-2.32197">
        <ele>78.699219</ele>
        <time>2019-10-08T09:51:25Z</time>
      </trkpt>
      <trkpt lat="48.63828" lon="-2.32195">
        <ele>77.699219</ele>
        <time>2019-10-08T09:51:35Z</time>
      </trkpt>
      <trkpt lat="48.63837" lon="-2.32191">
        <ele>77.597656</ele>
        <time>2019-10-08T09:51:43Z</time>
      </trkpt>
      <trkpt lat="48.63865" lon="-2.32179">
        <ele>72.097656</ele>
        <time>2019-10-08T09:52:08Z</time>
      </trkpt>
      <trkpt lat="48.63882" lon="-2.32166">
        <ele>70.597656</ele>
        <time>2019-10-08T09:52:25Z</time>
      </trkpt>
      <trkpt lat="48.63917" lon="-2.3214">
        <ele>66.699219</ele>
        <time>2019-10-08T09:52:56Z</time>
      </trkpt>
      <trkpt lat="48.63924" lon="-2.32132">
        <ele>65.796875</ele>
        <time>2019-10-08T09:53:04Z</time>
      </trkpt>
      <trkpt lat="48.63946" lon="-2.32103">
        <ele>63.5</ele>
        <time>2019-10-08T09:53:29Z</time>
      </trkpt>
      <trkpt lat="48.63953" lon="-2.32093">
        <ele>62.699219</ele>
        <time>2019-10-08T09:53:36Z</time>
      </trkpt>
      <trkpt lat="48.64021" lon="-2.3199">
        <ele>61.699219</ele>
        <time>2019-10-08T09:54:56Z</time>
      </trkpt>
      <trkpt lat="48.64076" lon="-2.31916">
        <ele>82.398438</ele>
        <time>2019-10-08T09:55:56Z</time>
      </trkpt>
      <trkpt lat="48.64086" lon="-2.3191">
        <ele>84.5</ele>
        <time>2019-10-08T09:56:06Z</time>
      </trkpt>
      <trkpt lat="48.64094" lon="-2.31904">
        <ele>82.199219</ele>
        <time>2019-10-08T09:56:16Z</time>
      </trkpt>
      <trkpt lat="48.64103" lon="-2.31901">
        <ele>80</ele>
        <time>2019-10-08T09:56:24Z</time>
      </trkpt>
      <trkpt lat="48.64112" lon="-2.31895">
        <ele>78</ele>
        <time>2019-10-08T09:56:31Z</time>
      </trkpt>
      <trkpt lat="48.64121" lon="-2.3189">
        <ele>74.796875</ele>
        <time>2019-10-08T09:56:39Z</time>
      </trkpt>
      <trkpt lat="48.6413" lon="-2.31883">
        <ele>71.597656</ele>
        <time>2019-10-08T09:56:47Z</time>
      </trkpt>
      <trkpt lat="48.64146" lon="-2.31867">
        <ele>68.296875</ele>
        <time>2019-10-08T09:57:03Z</time>
      </trkpt>
      <trkpt lat="48.64153" lon="-2.31859">
        <ele>65.898438</ele>
        <time>2019-10-08T09:57:10Z</time>
      </trkpt>
      <trkpt lat="48.64161" lon="-2.3185">
        <ele>64</ele>
        <time>2019-10-08T09:57:17Z</time>
      </trkpt>
      <trkpt lat="48.64171" lon="-2.31846">
        <ele>63.796875</ele>
        <time>2019-10-08T09:57:25Z</time>
      </trkpt>
      <trkpt lat="48.64176" lon="-2.31857">
        <ele>68.398438</ele>
        <time>2019-10-08T09:57:33Z</time>
      </trkpt>
      <trkpt lat="48.64183" lon="-2.31867">
        <ele>69.296875</ele>
        <time>2019-10-08T09:57:41Z</time>
      </trkpt>
      <trkpt lat="48.64189" lon="-2.31877">
        <ele>68.097656</ele>
        <time>2019-10-08T09:57:50Z</time>
      </trkpt>
      <trkpt lat="48.64197" lon="-2.31887">
        <ele>67.699219</ele>
        <time>2019-10-08T09:58:00Z</time>
      </trkpt>
      <trkpt lat="48.64205" lon="-2.31894">
        <ele>66.296875</ele>
        <time>2019-10-08T09:58:07Z</time>
      </trkpt>
      <trkpt lat="48.64222" lon="-2.31905">
        <ele>65</ele>
        <time>2019-10-08T09:58:21Z</time>
      </trkpt>
      <trkpt lat="48.6424" lon="-2.31915">
        <ele>65.398438</ele>
        <time>2019-10-08T09:58:36Z</time>
      </trkpt>
      <trkpt lat="48.64258" lon="-2.31923">
        <ele>68.597656</ele>
        <time>2019-10-08T09:58:52Z</time>
      </trkpt>
      <trkpt lat="48.64266" lon="-2.31931">
        <ele>67.796875</ele>
        <time>2019-10-08T09:59:01Z</time>
      </trkpt>
      <trkpt lat="48.64274" lon="-2.3194">
        <ele>64</ele>
        <time>2019-10-08T09:59:09Z</time>
      </trkpt>
      <trkpt lat="48.64282" lon="-2.3195">
        <ele>63.699219</ele>
        <time>2019-10-08T09:59:19Z</time>
      </trkpt>
      <trkpt lat="48.6429" lon="-2.31956">
        <ele>64.199219</ele>
        <time>2019-10-08T09:59:28Z</time>
      </trkpt>
      <trkpt lat="48.64315" lon="-2.31978">
        <ele>63.597656</ele>
        <time>2019-10-08T09:59:50Z</time>
      </trkpt>
      <trkpt lat="48.64325" lon="-2.31984">
        <ele>63.199219</ele>
        <time>2019-10-08T09:59:57Z</time>
      </trkpt>
      <trkpt lat="48.64342" lon="-2.31998">
        <ele>62.597656</ele>
        <time>2019-10-08T10:00:10Z</time>
      </trkpt>
      <trkpt lat="48.64358" lon="-2.32013">
        <ele>66.296875</ele>
        <time>2019-10-08T10:00:29Z</time>
      </trkpt>
      <trkpt lat="48.64363" lon="-2.32026">
        <ele>67.796875</ele>
        <time>2019-10-08T10:00:37Z</time>
      </trkpt>
      <trkpt lat="48.6437" lon="-2.32036">
        <ele>68.796875</ele>
        <time>2019-10-08T10:00:45Z</time>
      </trkpt>
      <trkpt lat="48.64383" lon="-2.32059">
        <ele>68.597656</ele>
        <time>2019-10-08T10:01:01Z</time>
      </trkpt>
      <trkpt lat="48.64388" lon="-2.32072">
        <ele>69.5</ele>
        <time>2019-10-08T10:01:10Z</time>
      </trkpt>
      <trkpt lat="48.64395" lon="-2.32085">
        <ele>69.296875</ele>
        <time>2019-10-08T10:01:19Z</time>
      </trkpt>
      <trkpt lat="48.64412" lon="-2.32119">
        <ele>71</ele>
        <time>2019-10-08T10:01:42Z</time>
      </trkpt>
      <trkpt lat="48.64417" lon="-2.32132">
        <ele>70.796875</ele>
        <time>2019-10-08T10:01:50Z</time>
      </trkpt>
      <trkpt lat="48.64423" lon="-2.32143">
        <ele>70.699219</ele>
        <time>2019-10-08T10:01:57Z</time>
      </trkpt>
      <trkpt lat="48.64429" lon="-2.32155">
        <ele>69.796875</ele>
        <time>2019-10-08T10:02:05Z</time>
      </trkpt>
      <trkpt lat="48.64445" lon="-2.32193">
        <ele>66</ele>
        <time>2019-10-08T10:02:28Z</time>
      </trkpt>
      <trkpt lat="48.64449" lon="-2.32205">
        <ele>65.699219</ele>
        <time>2019-10-08T10:02:42Z</time>
      </trkpt>
      <trkpt lat="48.64455" lon="-2.32216">
        <ele>64.796875</ele>
        <time>2019-10-08T10:02:49Z</time>
      </trkpt>
      <trkpt lat="48.64459" lon="-2.32229">
        <ele>64.597656</ele>
        <time>2019-10-08T10:02:56Z</time>
      </trkpt>
      <trkpt lat="48.64465" lon="-2.3224">
        <ele>63</ele>
        <time>2019-10-08T10:03:17Z</time>
      </trkpt>
      <trkpt lat="48.64473" lon="-2.32249">
        <ele>61.796875</ele>
        <time>2019-10-08T10:03:25Z</time>
      </trkpt>
      <trkpt lat="48.64504" lon="-2.3228">
        <ele>67</ele>
        <time>2019-10-08T10:03:57Z</time>
      </trkpt>
      <trkpt lat="48.64511" lon="-2.32291">
        <ele>64</ele>
        <time>2019-10-08T10:04:05Z</time>
      </trkpt>
      <trkpt lat="48.64524" lon="-2.32313">
        <ele>59.097656</ele>
        <time>2019-10-08T10:04:20Z</time>
      </trkpt>
      <trkpt lat="48.64532" lon="-2.3232">
        <ele>57.796875</ele>
        <time>2019-10-08T10:04:28Z</time>
      </trkpt>
      <trkpt lat="48.6454" lon="-2.32313">
        <ele>58.097656</ele>
        <time>2019-10-08T10:04:36Z</time>
      </trkpt>
      <trkpt lat="48.64546" lon="-2.32303">
        <ele>57.796875</ele>
        <time>2019-10-08T10:04:44Z</time>
      </trkpt>
      <trkpt lat="48.64553" lon="-2.32292">
        <ele>57.296875</ele>
        <time>2019-10-08T10:04:52Z</time>
      </trkpt>
      <trkpt lat="48.64557" lon="-2.32279">
        <ele>58.398438</ele>
        <time>2019-10-08T10:05:01Z</time>
      </trkpt>
      <trkpt lat="48.64561" lon="-2.32266">
        <ele>59.699219</ele>
        <time>2019-10-08T10:05:08Z</time>
      </trkpt>
      <trkpt lat="48.64575" lon="-2.32228">
        <ele>64.296875</ele>
        <time>2019-10-08T10:05:30Z</time>
      </trkpt>
      <trkpt lat="48.6458" lon="-2.32216">
        <ele>64.5</ele>
        <time>2019-10-08T10:05:37Z</time>
      </trkpt>
      <trkpt lat="48.64586" lon="-2.32204">
        <ele>63.898438</ele>
        <time>2019-10-08T10:05:45Z</time>
      </trkpt>
      <trkpt lat="48.64592" lon="-2.32194">
        <ele>63.097656</ele>
        <time>2019-10-08T10:05:52Z</time>
      </trkpt>
      <trkpt lat="48.64613" lon="-2.32166">
        <ele>63.296875</ele>
        <time>2019-10-08T10:06:13Z</time>
      </trkpt>
      <trkpt lat="48.64622" lon="-2.32165">
        <ele>61.597656</ele>
        <time>2019-10-08T10:07:28Z</time>
      </trkpt>
      <trkpt lat="48.64628" lon="-2.32155">
        <ele>60.699219</ele>
        <time>2019-10-08T10:07:35Z</time>
      </trkpt>
      <trkpt lat="48.64717" lon="-2.32023">
        <ele>63.199219</ele>
        <time>2019-10-08T10:09:21Z</time>
      </trkpt>
      <trkpt lat="48.64732" lon="-2.32005">
        <ele>63.398438</ele>
        <time>2019-10-08T10:09:39Z</time>
      </trkpt>
      <trkpt lat="48.64763" lon="-2.31971">
        <ele>65</ele>
        <time>2019-10-08T10:10:13Z</time>
      </trkpt>
      <trkpt lat="48.64771" lon="-2.31964">
        <ele>63.097656</ele>
        <time>2019-10-08T10:10:20Z</time>
      </trkpt>
      <trkpt lat="48.64779" lon="-2.31958">
        <ele>62.5</ele>
        <time>2019-10-08T10:10:28Z</time>
      </trkpt>
      <trkpt lat="48.64788" lon="-2.31953">
        <ele>63.699219</ele>
        <time>2019-10-08T10:10:36Z</time>
      </trkpt>
      <trkpt lat="48.64796" lon="-2.31946">
        <ele>61.5</ele>
        <time>2019-10-08T10:10:44Z</time>
      </trkpt>
      <trkpt lat="48.64814" lon="-2.31932">
        <ele>63.796875</ele>
        <time>2019-10-08T10:10:59Z</time>
      </trkpt>
      <trkpt lat="48.64857" lon="-2.31902">
        <ele>62</ele>
        <time>2019-10-08T10:11:35Z</time>
      </trkpt>
      <trkpt lat="48.64865" lon="-2.31894">
        <ele>62.097656</ele>
        <time>2019-10-08T10:11:43Z</time>
      </trkpt>
      <trkpt lat="48.64897" lon="-2.31858">
        <ele>67.199219</ele>
        <time>2019-10-08T10:12:21Z</time>
      </trkpt>
      <trkpt lat="48.64902" lon="-2.31846">
        <ele>64.796875</ele>
        <time>2019-10-08T10:12:30Z</time>
      </trkpt>
      <trkpt lat="48.64914" lon="-2.31824">
        <ele>63.199219</ele>
        <time>2019-10-08T10:12:47Z</time>
      </trkpt>
      <trkpt lat="48.64922" lon="-2.31814">
        <ele>63.5</ele>
        <time>2019-10-08T10:12:58Z</time>
      </trkpt>
      <trkpt lat="48.6493" lon="-2.31798">
        <ele>63.796875</ele>
        <time>2019-10-08T10:13:12Z</time>
      </trkpt>
      <trkpt lat="48.64949" lon="-2.31763">
        <ele>68.199219</ele>
        <time>2019-10-08T10:13:36Z</time>
      </trkpt>
      <trkpt lat="48.6498" lon="-2.31708">
        <ele>66.5</ele>
        <time>2019-10-08T10:14:13Z</time>
      </trkpt>
      <trkpt lat="48.64988" lon="-2.31698">
        <ele>67.332031</ele>
        <time>2019-10-08T10:14:22Z</time>
      </trkpt>
      <trkpt lat="48.65001" lon="-2.31678">
        <ele>70.699219</ele>
        <time>2019-10-08T10:14:59Z</time>
      </trkpt>
      <trkpt lat="48.65009" lon="-2.3167">
        <ele>69.597656</ele>
        <time>2019-10-08T10:15:08Z</time>
      </trkpt>
      <trkpt lat="48.65016" lon="-2.3166">
        <ele>68</ele>
        <time>2019-10-08T10:15:16Z</time>
      </trkpt>
      <trkpt lat="48.65023" lon="-2.31649">
        <ele>66.097656</ele>
        <time>2019-10-08T10:15:24Z</time>
      </trkpt>
      <trkpt lat="48.65026" lon="-2.31635">
        <ele>64.597656</ele>
        <time>2019-10-08T10:15:33Z</time>
      </trkpt>
      <trkpt lat="48.65036" lon="-2.3161">
        <ele>63.097656</ele>
        <time>2019-10-08T10:15:48Z</time>
      </trkpt>
      <trkpt lat="48.65047" lon="-2.31586">
        <ele>59.597656</ele>
        <time>2019-10-08T10:16:04Z</time>
      </trkpt>
      <trkpt lat="48.65058" lon="-2.31563">
        <ele>56.898438</ele>
        <time>2019-10-08T10:16:20Z</time>
      </trkpt>
      <trkpt lat="48.6507" lon="-2.31541">
        <ele>57.398438</ele>
        <time>2019-10-08T10:16:37Z</time>
      </trkpt>
      <trkpt lat="48.65076" lon="-2.31529">
        <ele>55.796875</ele>
        <time>2019-10-08T10:16:45Z</time>
      </trkpt>
      <trkpt lat="48.65096" lon="-2.31478">
        <ele>54.597656</ele>
        <time>2019-10-08T10:17:21Z</time>
      </trkpt>
      <trkpt lat="48.65103" lon="-2.31467">
        <ele>52.597656</ele>
        <time>2019-10-08T10:17:28Z</time>
      </trkpt>
      <trkpt lat="48.65124" lon="-2.31437">
        <ele>64.597656</ele>
        <time>2019-10-08T10:17:49Z</time>
      </trkpt>
      <trkpt lat="48.6513" lon="-2.31426">
        <ele>66.199219</ele>
        <time>2019-10-08T10:17:57Z</time>
      </trkpt>
      <trkpt lat="48.65137" lon="-2.31417">
        <ele>66.097656</ele>
        <time>2019-10-08T10:18:07Z</time>
      </trkpt>
      <trkpt lat="48.65143" lon="-2.31406">
        <ele>65.597656</ele>
        <time>2019-10-08T10:18:14Z</time>
      </trkpt>
      <trkpt lat="48.6515" lon="-2.31397">
        <ele>65.597656</ele>
        <time>2019-10-08T10:18:25Z</time>
      </trkpt>
      <trkpt lat="48.65171" lon="-2.31369">
        <ele>65.5</ele>
        <time>2019-10-08T10:18:50Z</time>
      </trkpt>
      <trkpt lat="48.65177" lon="-2.31357">
        <ele>62.296875</ele>
        <time>2019-10-08T10:19:00Z</time>
      </trkpt>
      <trkpt lat="48.65185" lon="-2.31349">
        <ele>60.296875</ele>
        <time>2019-10-08T10:19:06Z</time>
      </trkpt>
      <trkpt lat="48.65192" lon="-2.31339">
        <ele>60.097656</ele>
        <time>2019-10-08T10:19:12Z</time>
      </trkpt>
      <trkpt lat="48.65266" lon="-2.31246">
        <ele>50.699219</ele>
        <time>2019-10-08T10:20:27Z</time>
      </trkpt>
      <trkpt lat="48.65281" lon="-2.31229">
        <ele>56.5</ele>
        <time>2019-10-08T10:20:42Z</time>
      </trkpt>
      <trkpt lat="48.65298" lon="-2.31213">
        <ele>59</ele>
        <time>2019-10-08T10:20:57Z</time>
      </trkpt>
      <trkpt lat="48.65329" lon="-2.3118">
        <ele>76.296875</ele>
        <time>2019-10-08T10:21:37Z</time>
      </trkpt>
      <trkpt lat="48.65336" lon="-2.3117">
        <ele>72.097656</ele>
        <time>2019-10-08T10:21:46Z</time>
      </trkpt>
      <trkpt lat="48.65351" lon="-2.31152">
        <ele>65.699219</ele>
        <time>2019-10-08T10:22:04Z</time>
      </trkpt>
      <trkpt lat="48.65358" lon="-2.31141">
        <ele>64.5</ele>
        <time>2019-10-08T10:22:12Z</time>
      </trkpt>
      <trkpt lat="48.65365" lon="-2.31132">
        <ele>70.699219</ele>
        <time>2019-10-08T10:22:20Z</time>
      </trkpt>
      <trkpt lat="48.65374" lon="-2.31122">
        <ele>70.898438</ele>
        <time>2019-10-08T10:22:50Z</time>
      </trkpt>
      <trkpt lat="48.65381" lon="-2.31113">
        <ele>71.398438</ele>
        <time>2019-10-08T10:23:00Z</time>
      </trkpt>
      <trkpt lat="48.65389" lon="-2.31105">
        <ele>73</ele>
        <time>2019-10-08T10:23:11Z</time>
      </trkpt>
      <trkpt lat="48.65397" lon="-2.31097">
        <ele>70.796875</ele>
        <time>2019-10-08T10:23:20Z</time>
      </trkpt>
      <trkpt lat="48.65405" lon="-2.31088">
        <ele>67.597656</ele>
        <time>2019-10-08T10:23:30Z</time>
      </trkpt>
      <trkpt lat="48.65408" lon="-2.31074">
        <ele>68.296875</ele>
        <time>2019-10-08T10:23:43Z</time>
      </trkpt>
      <trkpt lat="48.65412" lon="-2.31061">
        <ele>68.199219</ele>
        <time>2019-10-08T10:23:50Z</time>
      </trkpt>
      <trkpt lat="48.65422" lon="-2.31036">
        <ele>63.5</ele>
        <time>2019-10-08T10:24:06Z</time>
      </trkpt>
      <trkpt lat="48.65425" lon="-2.31022">
        <ele>61.097656</ele>
        <time>2019-10-08T10:24:15Z</time>
      </trkpt>
      <trkpt lat="48.65425" lon="-2.31008">
        <ele>61.296875</ele>
        <time>2019-10-08T10:24:24Z</time>
      </trkpt>
      <trkpt lat="48.65426" lon="-2.30966">
        <ele>65.597656</ele>
        <time>2019-10-08T10:24:49Z</time>
      </trkpt>
      <trkpt lat="48.65428" lon="-2.30938">
        <ele>69.699219</ele>
        <time>2019-10-08T10:25:07Z</time>
      </trkpt>
      <trkpt lat="48.6543" lon="-2.30923">
        <ele>69.898438</ele>
        <time>2019-10-08T10:25:16Z</time>
      </trkpt>
      <trkpt lat="48.65433" lon="-2.30909">
        <ele>68.898438</ele>
        <time>2019-10-08T10:25:24Z</time>
      </trkpt>
      <trkpt lat="48.65436" lon="-2.30895">
        <ele>70.699219</ele>
        <time>2019-10-08T10:25:33Z</time>
      </trkpt>
      <trkpt lat="48.65443" lon="-2.30868">
        <ele>73.597656</ele>
        <time>2019-10-08T10:25:52Z</time>
      </trkpt>
      <trkpt lat="48.65444" lon="-2.30852">
        <ele>74.796875</ele>
        <time>2019-10-08T10:26:01Z</time>
      </trkpt>
      <trkpt lat="48.65446" lon="-2.30839">
        <ele>75.898438</ele>
        <time>2019-10-08T10:26:08Z</time>
      </trkpt>
      <trkpt lat="48.65451" lon="-2.30812">
        <ele>74.097656</ele>
        <time>2019-10-08T10:26:22Z</time>
      </trkpt>
      <trkpt lat="48.65455" lon="-2.30799">
        <ele>75</ele>
        <time>2019-10-08T10:26:30Z</time>
      </trkpt>
      <trkpt lat="48.6546" lon="-2.30787">
        <ele>75.898438</ele>
        <time>2019-10-08T10:26:42Z</time>
      </trkpt>
      <trkpt lat="48.65466" lon="-2.30776">
        <ele>72.597656</ele>
        <time>2019-10-08T10:26:52Z</time>
      </trkpt>
      <trkpt lat="48.65472" lon="-2.30765">
        <ele>71.699219</ele>
        <time>2019-10-08T10:27:00Z</time>
      </trkpt>
      <trkpt lat="48.6548" lon="-2.30757">
        <ele>71.597656</ele>
        <time>2019-10-08T10:27:07Z</time>
      </trkpt>
      <trkpt lat="48.65495" lon="-2.3074">
        <ele>70.898438</ele>
        <time>2019-10-08T10:27:22Z</time>
      </trkpt>
      <trkpt lat="48.65501" lon="-2.30729">
        <ele>70</ele>
        <time>2019-10-08T10:27:30Z</time>
      </trkpt>
      <trkpt lat="48.65506" lon="-2.30717">
        <ele>68.898438</ele>
        <time>2019-10-08T10:27:38Z</time>
      </trkpt>
      <trkpt lat="48.65506" lon="-2.30703">
        <ele>68</ele>
        <time>2019-10-08T10:27:47Z</time>
      </trkpt>
      <trkpt lat="48.65505" lon="-2.30689">
        <ele>67.898438</ele>
        <time>2019-10-08T10:27:55Z</time>
      </trkpt>
      <trkpt lat="48.65502" lon="-2.30659">
        <ele>69.296875</ele>
        <time>2019-10-08T10:28:12Z</time>
      </trkpt>
      <trkpt lat="48.65497" lon="-2.30648">
        <ele>70.5</ele>
        <time>2019-10-08T10:28:23Z</time>
      </trkpt>
      <trkpt lat="48.65487" lon="-2.30645">
        <ele>72.097656</ele>
        <time>2019-10-08T10:28:31Z</time>
      </trkpt>
      <trkpt lat="48.65478" lon="-2.30647">
        <ele>72.199219</ele>
        <time>2019-10-08T10:28:39Z</time>
      </trkpt>
      <trkpt lat="48.65469" lon="-2.30648">
        <ele>72.296875</ele>
        <time>2019-10-08T10:28:46Z</time>
      </trkpt>
      <trkpt lat="48.6546" lon="-2.30652">
        <ele>72.898438</ele>
        <time>2019-10-08T10:28:54Z</time>
      </trkpt>
      <trkpt lat="48.65451" lon="-2.30657">
        <ele>73.5</ele>
        <time>2019-10-08T10:29:02Z</time>
      </trkpt>
      <trkpt lat="48.65426" lon="-2.30674">
        <ele>71.597656</ele>
        <time>2019-10-08T10:29:25Z</time>
      </trkpt>
      <trkpt lat="48.65418" lon="-2.30682">
        <ele>72.898438</ele>
        <time>2019-10-08T10:29:33Z</time>
      </trkpt>
      <trkpt lat="48.6541" lon="-2.30691">
        <ele>73.796875</ele>
        <time>2019-10-08T10:29:41Z</time>
      </trkpt>
      <trkpt lat="48.65401" lon="-2.30697">
        <ele>74.296875</ele>
        <time>2019-10-08T10:29:50Z</time>
      </trkpt>
      <trkpt lat="48.65394" lon="-2.30708">
        <ele>74.296875</ele>
        <time>2019-10-08T10:29:58Z</time>
      </trkpt>
      <trkpt lat="48.65386" lon="-2.30717">
        <ele>76.398438</ele>
        <time>2019-10-08T10:30:07Z</time>
      </trkpt>
      <trkpt lat="48.65379" lon="-2.30725">
        <ele>75.597656</ele>
        <time>2019-10-08T10:30:16Z</time>
      </trkpt>
      <trkpt lat="48.65371" lon="-2.30733">
        <ele>75.398438</ele>
        <time>2019-10-08T10:30:25Z</time>
      </trkpt>
      <trkpt lat="48.65347" lon="-2.30755">
        <ele>74.898438</ele>
        <time>2019-10-08T10:30:48Z</time>
      </trkpt>
      <trkpt lat="48.65332" lon="-2.30774">
        <ele>74.296875</ele>
        <time>2019-10-08T10:31:02Z</time>
      </trkpt>
      <trkpt lat="48.65322" lon="-2.30772">
        <ele>74.597656</ele>
        <time>2019-10-08T10:31:13Z</time>
      </trkpt>
      <trkpt lat="48.65314" lon="-2.30764">
        <ele>75.097656</ele>
        <time>2019-10-08T10:31:21Z</time>
      </trkpt>
      <trkpt lat="48.6529" lon="-2.3074">
        <ele>74</ele>
        <time>2019-10-08T10:31:45Z</time>
      </trkpt>
      <trkpt lat="48.65264" lon="-2.30719">
        <ele>74.597656</ele>
        <time>2019-10-08T10:32:10Z</time>
      </trkpt>
      <trkpt lat="48.65256" lon="-2.30714">
        <ele>75.398438</ele>
        <time>2019-10-08T10:32:17Z</time>
      </trkpt>
      <trkpt lat="48.65237" lon="-2.307">
        <ele>77.898438</ele>
        <time>2019-10-08T10:32:34Z</time>
      </trkpt>
      <trkpt lat="48.65229" lon="-2.30692">
        <ele>76.699219</ele>
        <time>2019-10-08T10:32:42Z</time>
      </trkpt>
      <trkpt lat="48.6518" lon="-2.30649">
        <ele>78.5</ele>
        <time>2019-10-08T10:33:33Z</time>
      </trkpt>
      <trkpt lat="48.65172" lon="-2.30641">
        <ele>78.796875</ele>
        <time>2019-10-08T10:33:40Z</time>
      </trkpt>
      <trkpt lat="48.65164" lon="-2.30632">
        <ele>77.699219</ele>
        <time>2019-10-08T10:33:49Z</time>
      </trkpt>
      <trkpt lat="48.65158" lon="-2.30623">
        <ele>76.398438</ele>
        <time>2019-10-08T10:33:56Z</time>
      </trkpt>
      <trkpt lat="48.65153" lon="-2.30611">
        <ele>75.5</ele>
        <time>2019-10-08T10:34:03Z</time>
      </trkpt>
      <trkpt lat="48.65156" lon="-2.30597">
        <ele>74.597656</ele>
        <time>2019-10-08T10:34:11Z</time>
      </trkpt>
      <trkpt lat="48.6516" lon="-2.30585">
        <ele>75</ele>
        <time>2019-10-08T10:34:19Z</time>
      </trkpt>
      <trkpt lat="48.65167" lon="-2.30574">
        <ele>77.296875</ele>
        <time>2019-10-08T10:34:27Z</time>
      </trkpt>
      <trkpt lat="48.65175" lon="-2.30565">
        <ele>78.097656</ele>
        <time>2019-10-08T10:34:35Z</time>
      </trkpt>
      <trkpt lat="48.65198" lon="-2.30541">
        <ele>83</ele>
        <time>2019-10-08T10:34:59Z</time>
      </trkpt>
      <trkpt lat="48.65207" lon="-2.30536">
        <ele>82.296875</ele>
        <time>2019-10-08T10:35:08Z</time>
      </trkpt>
      <trkpt lat="48.65216" lon="-2.3053">
        <ele>81.597656</ele>
        <time>2019-10-08T10:35:16Z</time>
      </trkpt>
      <trkpt lat="48.65233" lon="-2.30515">
        <ele>79.796875</ele>
        <time>2019-10-08T10:35:33Z</time>
      </trkpt>
      <trkpt lat="48.65249" lon="-2.30499">
        <ele>75.398438</ele>
        <time>2019-10-08T10:35:49Z</time>
      </trkpt>
      <trkpt lat="48.65255" lon="-2.30488">
        <ele>73.898438</ele>
        <time>2019-10-08T10:35:57Z</time>
      </trkpt>
      <trkpt lat="48.65261" lon="-2.30476">
        <ele>74.199219</ele>
        <time>2019-10-08T10:36:05Z</time>
      </trkpt>
      <trkpt lat="48.65265" lon="-2.30463">
        <ele>74.699219</ele>
        <time>2019-10-08T10:36:12Z</time>
      </trkpt>
      <trkpt lat="48.65268" lon="-2.3045">
        <ele>76.699219</ele>
        <time>2019-10-08T10:36:19Z</time>
      </trkpt>
      <trkpt lat="48.65269" lon="-2.30436">
        <ele>77.699219</ele>
        <time>2019-10-08T10:36:27Z</time>
      </trkpt>
      <trkpt lat="48.6527" lon="-2.30421">
        <ele>77.097656</ele>
        <time>2019-10-08T10:36:35Z</time>
      </trkpt>
      <trkpt lat="48.65273" lon="-2.30408">
        <ele>76.898438</ele>
        <time>2019-10-08T10:36:43Z</time>
      </trkpt>
      <trkpt lat="48.65279" lon="-2.3038">
        <ele>75.796875</ele>
        <time>2019-10-08T10:37:00Z</time>
      </trkpt>
      <trkpt lat="48.65284" lon="-2.30353">
        <ele>77.898438</ele>
        <time>2019-10-08T10:37:17Z</time>
      </trkpt>
      <trkpt lat="48.65284" lon="-2.30338">
        <ele>80.597656</ele>
        <time>2019-10-08T10:37:25Z</time>
      </trkpt>
      <trkpt lat="48.65286" lon="-2.30324">
        <ele>77.097656</ele>
        <time>2019-10-08T10:37:34Z</time>
      </trkpt>
      <trkpt lat="48.65289" lon="-2.3031">
        <ele>73.5</ele>
        <time>2019-10-08T10:37:46Z</time>
      </trkpt>
      <trkpt lat="48.65293" lon="-2.30297">
        <ele>72.597656</ele>
        <time>2019-10-08T10:37:54Z</time>
      </trkpt>
      <trkpt lat="48.65299" lon="-2.30287">
        <ele>72.898438</ele>
        <time>2019-10-08T10:38:01Z</time>
      </trkpt>
      <trkpt lat="48.65306" lon="-2.30277">
        <ele>73.5</ele>
        <time>2019-10-08T10:38:08Z</time>
      </trkpt>
      <trkpt lat="48.65313" lon="-2.30268">
        <ele>74.296875</ele>
        <time>2019-10-08T10:38:15Z</time>
      </trkpt>
      <trkpt lat="48.65329" lon="-2.30252">
        <ele>73</ele>
        <time>2019-10-08T10:38:30Z</time>
      </trkpt>
      <trkpt lat="48.65346" lon="-2.30237">
        <ele>71.097656</ele>
        <time>2019-10-08T10:38:46Z</time>
      </trkpt>
      <trkpt lat="48.65353" lon="-2.30228">
        <ele>68.097656</ele>
        <time>2019-10-08T10:38:54Z</time>
      </trkpt>
      <trkpt lat="48.65359" lon="-2.30216">
        <ele>67.398438</ele>
        <time>2019-10-08T10:39:04Z</time>
      </trkpt>
      <trkpt lat="48.65372" lon="-2.30193">
        <ele>66.597656</ele>
        <time>2019-10-08T10:39:22Z</time>
      </trkpt>
      <trkpt lat="48.65377" lon="-2.3018">
        <ele>67.796875</ele>
        <time>2019-10-08T10:39:32Z</time>
      </trkpt>
      <trkpt lat="48.65383" lon="-2.3017">
        <ele>67.597656</ele>
        <time>2019-10-08T10:39:40Z</time>
      </trkpt>
      <trkpt lat="48.65389" lon="-2.30158">
        <ele>66.699219</ele>
        <time>2019-10-08T10:39:49Z</time>
      </trkpt>
      <trkpt lat="48.65394" lon="-2.30146">
        <ele>65.398438</ele>
        <time>2019-10-08T10:39:58Z</time>
      </trkpt>
      <trkpt lat="48.65397" lon="-2.30132">
        <ele>64.097656</ele>
        <time>2019-10-08T10:40:07Z</time>
      </trkpt>
      <trkpt lat="48.654" lon="-2.30118">
        <ele>64</ele>
        <time>2019-10-08T10:40:16Z</time>
      </trkpt>
      <trkpt lat="48.65403" lon="-2.30105">
        <ele>62.398438</ele>
        <time>2019-10-08T10:40:25Z</time>
      </trkpt>
      <trkpt lat="48.65397" lon="-2.30094">
        <ele>62.597656</ele>
        <time>2019-10-08T10:40:55Z</time>
      </trkpt>
      <trkpt lat="48.65388" lon="-2.30088">
        <ele>62.097656</ele>
        <time>2019-10-08T10:41:05Z</time>
      </trkpt>
      <trkpt lat="48.65371" lon="-2.30075">
        <ele>53.796875</ele>
        <time>2019-10-08T10:42:15Z</time>
      </trkpt>
      <trkpt lat="48.65362" lon="-2.3007">
        <ele>48.199219</ele>
        <time>2019-10-08T10:42:28Z</time>
      </trkpt>
      <trkpt lat="48.65353" lon="-2.3007">
        <ele>53.296875</ele>
        <time>2019-10-08T10:42:40Z</time>
      </trkpt>
      <trkpt lat="48.65345" lon="-2.30063">
        <ele>54.597656</ele>
        <time>2019-10-08T10:42:49Z</time>
      </trkpt>
      <trkpt lat="48.65337" lon="-2.30058">
        <ele>54.699219</ele>
        <time>2019-10-08T10:42:56Z</time>
      </trkpt>
      <trkpt lat="48.65318" lon="-2.30049">
        <ele>56.796875</ele>
        <time>2019-10-08T10:43:12Z</time>
      </trkpt>
      <trkpt lat="48.65309" lon="-2.30047">
        <ele>55.597656</ele>
        <time>2019-10-08T10:43:21Z</time>
      </trkpt>
      <trkpt lat="48.653" lon="-2.30043">
        <ele>55</ele>
        <time>2019-10-08T10:43:30Z</time>
      </trkpt>
      <trkpt lat="48.65291" lon="-2.30041">
        <ele>50.597656</ele>
        <time>2019-10-08T10:43:38Z</time>
      </trkpt>
      <trkpt lat="48.65281" lon="-2.3004">
        <ele>47.699219</ele>
        <time>2019-10-08T10:43:47Z</time>
      </trkpt>
      <trkpt lat="48.65263" lon="-2.30039">
        <ele>49.898438</ele>
        <time>2019-10-08T10:44:05Z</time>
      </trkpt>
      <trkpt lat="48.65254" lon="-2.30041">
        <ele>48.296875</ele>
        <time>2019-10-08T10:44:13Z</time>
      </trkpt>
      <trkpt lat="48.65227" lon="-2.30052">
        <ele>39.597656</ele>
        <time>2019-10-08T10:44:37Z</time>
      </trkpt>
      <trkpt lat="48.65218" lon="-2.30049">
        <ele>40.097656</ele>
        <time>2019-10-08T10:44:45Z</time>
      </trkpt>
      <trkpt lat="48.65209" lon="-2.30045">
        <ele>40.796875</ele>
        <time>2019-10-08T10:44:53Z</time>
      </trkpt>
      <trkpt lat="48.652" lon="-2.30044">
        <ele>39.5</ele>
        <time>2019-10-08T10:45:00Z</time>
      </trkpt>
      <trkpt lat="48.65191" lon="-2.30048">
        <ele>39.5</ele>
        <time>2019-10-08T10:45:11Z</time>
      </trkpt>
      <trkpt lat="48.65182" lon="-2.30047">
        <ele>37.5</ele>
        <time>2019-10-08T10:45:20Z</time>
      </trkpt>
      <trkpt lat="48.65173" lon="-2.30046">
        <ele>33.796875</ele>
        <time>2019-10-08T10:45:31Z</time>
      </trkpt>
      <trkpt lat="48.65163" lon="-2.30046">
        <ele>32.296875</ele>
        <time>2019-10-08T10:45:41Z</time>
      </trkpt>
      <trkpt lat="48.65154" lon="-2.30044">
        <ele>28.5</ele>
        <time>2019-10-08T10:45:49Z</time>
      </trkpt>
      <trkpt lat="48.65145" lon="-2.30044">
        <ele>26.699219</ele>
        <time>2019-10-08T10:45:58Z</time>
      </trkpt>
      <trkpt lat="48.65131" lon="-2.30041">
        <ele>25.402344</ele>
        <time>2019-10-08T10:46:43Z</time>
      </trkpt>
    </trkseg>
  </trk>
</gpx>